Relevés horaires Beauvechain (Belgique)


Relevés horaires à Beauvechain - Vendredi 12 Août 2016
Heure UTC1 Température [°C] Vent [km/h] Hum. [%] Pres.4 [hPa] Visi. [Km] Nébu. [octa] Préc.5 [mm] Cond.
2m. Res. Ros. Dir.2 Vit. Moy. Raf.3
23:00 17.2 17.2 14.4 SSO 3.7 5.6 7.4 84 1023.7(-0.4/3h) 20 -- -- --
22:00 18.3 18.3 14.6 SSO 5.6 5.6 7.4 79 1023.7(0.0/3h) 20 -- -- --
21:00 19.0 19.0 14.9 SSO 5.6 0.0 0.0 77 1024(0.1/3h) 20 -- -- --
20:00 20.1 20.1 15.2 SSO 3.7 5.6 5.6 73 1024(-0.1/3h) 20 -- -- --
19:00 21.2 21.2 15.3 SSO 5.6 9.3 11.1 69 1023.7(-0.6/3h) 20 -- -- --
18:00 22.7 22.7 15.4 SO 9.3 0.0 0.0 63 1023.7(-0.6/3h) 20 -- 0/0h
--
17:00 23.0 23.0 15.8 OSO 9.3 9.3 13.0 64 1024(-0.5/3h) 20 -- -- --
16:00 23.1 23.1 15.8 OSO 9.3 9.3 14.8 64 1024.2(-0.5/3h) 20 -- -- --
15:00 23.1 23.1 16.2 OSO 9.3 0.0 0.0 65 1024.4(-0.4/3h) 20 -- -- --
14:00 22.4 22.4 15.6 SO 13.0 13.0 16.7 65 1024.5(-0.2/3h) 20 4/8 -- --
13:00 21.1 21.1 15.9 SO 7.4 11.1 16.7 72 1024.9(0.1/3h) 15 7/8 -- --
12:00 21.0 21.0 15.7 OSO 11.1 11.1 18.5 72 1024.9(0.3/3h) 15 7/8 0/0h
--
11:00 19.7 19.7 15.8 OSO 9.3 11.1 14.8 78 1025(0.7/3h) 10 7/8 -- --
10:00 19.3 19.3 15.9 OSO 7.4 9.3 13.0 81 1024.9(1.0/3h) 10 7/8 -- --
09:00 18.5 18.5 15.5 OSO 7.4 -- -- 83 1024.7(0.9/3h) 10 7/8 -- --
08:00 17.1 17.1 15.6 OSO 9.3 9.3 11.1 91 1024.4(1.1/3h) 7 7/8 -- --
07:00 15.5 15.5 14.7 OSO 7.4 7.4 11.1 95 1024(1.1/3h) 7 6/8 -- --
06:00 14.6 14.5 14.1 OSO 7.4 9.3 13.0 97 1023.8(1.2/3h) 7 7/8 0/0h
--
05:00 14.5 14.4 14.0 SO 7.4 7.4 9.3 97 1023.3(1.0/3h) 7 7/8 -- --
04:00 14.5 14.5 14.0 OSO 5.6 9.3 11.1 97 1022.8(0.6/3h) 8 7/8 -- --
03:00 14.3 14.2 13.9 OSO 7.4 0.0 0.0 97 1022.7(0.7/3h) 8 -- -- --
02:00 14.1 13.9 13.6 SO 7.4 7.4 11.1 97 1022.2(0.3/3h) 10 -- -- --
01:00 14.0 13.8 13.3 SO 7.4 9.3 13.0 96 1022.2(0.3/3h) 12 -- -- --
00:00 14.3 13.9 13.1 OSO 9.3 -- -- 92 1022 15 -- 0/0h
--

1 Coordinated Universal Time. Actuellement il est 19:00 locale et 18:00 UTC.

2 Le vent souffle depuis la direction indiquée vers la direction oposée.

3 Les rafales max. sont disponible 40 min après l'heure du relevé.

4 Pour les stations d'altitude (plus de 600m) le géopotentiel du niveau le plus proche de la pression obligatoire est indiqué.

5 Les stations disposant d'un diffuseur peuvent indiquer "trace". Cela signifie que des précipitations ont touchés le sol mais que la quantité est inférieure à 0.1 mm.

Récapitulatif de la journée
Température [°C] Vent [km/h] Ensoleillement4 [h] Precipitations totale5 [mm] Pression [Hpa]
Min1 Max.2 Moy.3 Max. Min Max.
13.8 23.8 7.3 18.5 0 h 0 min 0 1022.0 1025.0

1 Température minimale relevée entre 18:00 UTC la veille et 18:00 UTC le jour donné.

2 Température maximale relevée entre 06:00 UTC le jour donné et 06:00 UTC le lendemain.

3 Vent moyen de la journée basé sur les relevés horaires.

4 Ensoleillement en heures relevé entre 06:00 UTC la veille et 06:00 UTC le jour donné.

5 Précipitations totales tombées entre 06:00 UTC la jour donné et 06:00 UTC le lendemain.

Graphiques horaires